Time;durP1;ratioP1;P1;durP2;ratioP2;P2;SDS_P1;SDS_P2;PMS_P1;PMS_P2;Temp;Humidity;BMP_temperature;BMP_pressure;BME280_temperature;BME280_humidity;BME280_pressure;Samples;Min_cycle;Max_cycle;Signal;HPM_P1;HPM_P2
2023/01/17 05:05:29;;;;;;;12.02;7.90;;;;;;;8.12;92.54;98116.81;5591722;31;82900;-57
2023/01/17 05:08:32;;;;;;;11.90;7.25;;;;;;;8.12;92.54;98116.81;5588457;31;33463;-57
2023/01/17 05:11:34;;;;;;;13.18;7.20;;;;;;;7.59;92.74;98117.22;5603192;31;33462;-57
2023/01/17 05:14:39;;;;;;;11.43;7.25;;;;;;;7.73;100.00;98109.84;5603234;31;33597;-58
2023/01/17 05:17:41;;;;;;;11.18;6.87;;;;;;;7.62;95.15;98116.59;5602645;31;33674;-58
2023/01/17 05:20:43;;;;;;;12.13;6.68;;;;;;;7.58;93.71;98120.97;5603350;31;33589;-57
2023/01/17 05:23:46;;;;;;;9.32;6.57;;;;;;;7.61;93.59;98123.00;5603173;31;33897;-57
2023/01/17 05:26:53;;;;;;;12.02;6.80;;;;;;;7.65;93.90;98123.94;5602978;31;34317;-58
2023/01/17 05:29:55;;;;;;;11.45;6.65;;;;;;;7.70;92.61;98124.56;5583687;31;33528;-58
2023/01/17 05:32:58;;;;;;;10.27;6.45;;;;;;;7.76;95.81;98125.19;5588474;31;33650;-57
2023/01/17 05:36:00;;;;;;;11.07;6.87;;;;;;;7.84;93.08;98129.72;5603254;31;33731;-58
2023/01/17 05:39:03;;;;;;;11.05;7.30;;;;;;;7.88;94.34;98132.53;5600836;31;33651;-60
2023/01/17 05:42:05;;;;;;;10.70;6.60;;;;;;;7.80;100.00;98133.34;5602332;31;33716;-58
2023/01/17 05:45:08;;;;;;;11.50;6.93;;;;;;;7.75;95.07;98137.75;5602934;31;34254;-59
2023/01/17 05:48:10;;;;;;;10.18;6.75;;;;;;;7.67;98.78;98137.75;5603157;31;33698;-58
2023/01/17 05:51:13;;;;;;;11.68;7.07;;;;;;;7.75;93.07;98150.31;5602571;31;33708;-57
2023/01/17 05:54:15;;;;;;;11.60;7.47;;;;;;;7.76;95.62;98155.31;5601303;31;33684;-58
2023/01/17 05:57:18;;;;;;;12.35;7.97;;;;;;;8.04;100.00;98165.63;5602739;31;34383;-58
2023/01/17 06:00:22;;;;;;;9.65;6.12;;;;;;;7.86;98.32;98164.09;5603019;31;33545;-57
2023/01/17 06:03:24;;;;;;;10.95;6.07;;;;;;;8.07;99.17;98166.88;5602031;31;33583;-57
2023/01/17 06:06:26;;;;;;;8.88;5.55;;;;;;;8.20;99.24;98172.03;5596889;31;33817;-58
2023/01/17 06:09:29;;;;;;;8.13;5.25;;;;;;;8.08;98.56;98184.44;5582804;32;33692;-57
2023/01/17 06:12:31;;;;;;;10.07;4.70;;;;;;;8.01;92.82;98184.94;5588802;31;33552;-57
2023/01/17 06:15:35;;;;;;;7.90;5.25;;;;;;;7.89;94.06;98185.59;5590691;31;34330;-58
2023/01/17 06:18:37;;;;;;;6.43;4.05;;;;;;;8.09;96.49;98186.03;5589251;31;33413;-59
2023/01/17 06:21:39;;;;;;;6.45;4.57;;;;;;;7.99;95.95;98187.16;5588660;31;33166;-58
2023/01/17 06:24:41;;;;;;;5.82;3.80;;;;;;;8.11;100.00;98192.63;5576835;31;34275;-58
2023/01/17 06:27:44;;;;;;;7.00;3.55;;;;;;;8.07;97.13;98189.00;5571478;31;33690;-57
2023/01/17 06:30:47;;;;;;;6.35;3.95;;;;;;;7.98;92.17;98191.72;5576031;31;34434;-58
2023/01/17 06:33:50;;;;;;;6.45;4.45;;;;;;;7.89;100.00;98188.25;5587873;31;34932;-57
2023/01/17 06:36:55;;;;;;;5.68;3.80;;;;;;;7.92;96.89;98192.97;5573049;31;34302;-57
2023/01/17 06:39:58;;;;;;;7.82;4.78;;;;;;;7.91;93.15;98198.59;5586753;31;33714;-58
2023/01/17 06:43:01;;;;;;;8.13;4.70;;;;;;;7.92;100.00;98211.63;5587010;31;33719;-57
2023/01/17 06:46:03;;;;;;;8.07;4.18;;;;;;;7.79;93.52;98223.25;5586486;31;33135;-58
2023/01/17 06:49:06;;;;;;;7.55;4.37;;;;;;;7.87;90.80;98233.13;5587678;31;33755;-59
2023/01/17 06:52:08;;;;;;;8.02;4.80;;;;;;;7.98;99.12;98229.06;5587350;31;34039;-58
2023/01/17 06:55:10;;;;;;;8.30;5.68;;;;;;;7.82;90.87;98240.53;5588647;31;33965;-58
2023/01/17 06:58:12;;;;;;;8.77;5.93;;;;;;;7.75;91.09;98255.09;5588213;31;33729;-58
2023/01/17 07:01:17;;;;;;;7.53;5.37;;;;;;;7.69;95.14;98251.03;5586826;31;34330;-58
2023/01/17 07:04:20;;;;;;;9.18;6.30;;;;;;;7.73;92.31;98259.97;5582298;31;33203;-58
2023/01/17 07:07:23;;;;;;;8.27;5.90;;;;;;;7.76;100.00;98261.22;5587139;31;33676;-57
2023/01/17 07:10:26;;;;;;;9.77;5.05;;;;;;;7.81;91.88;98260.28;5587135;31;33731;-57
2023/01/17 07:13:29;;;;;;;9.02;6.00;;;;;;;7.82;90.74;98273.31;5587307;31;33849;-57
2023/01/17 07:16:32;;;;;;;7.90;5.07;;;;;;;7.87;100.00;98281.16;5583987;31;33096;-57
2023/01/17 07:19:49;;;;;;;;;;;;;;;7.85;90.49;98286.03;5588785;31;33931;-58
2023/01/17 07:22:51;;;;;;;6.12;4.43;;;;;;;7.75;93.82;98284.44;5588736;31;33917;-57
2023/01/17 07:25:58;;;;;;;8.18;4.85;;;;;;;7.77;90.52;98289.47;5588119;31;34245;-57
2023/01/17 07:29:05;;;;;;;9.82;5.50;;;;;;;7.77;89.66;98289.47;5587662;31;33624;-58
2023/01/17 07:32:09;;;;;;;6.70;4.95;;;;;;;7.69;97.69;98301.69;5588519;31;34777;-58
2023/01/17 07:35:12;;;;;;;6.97;5.20;;;;;;;7.63;88.62;98302.16;5588304;31;34780;-57
2023/01/17 07:38:18;;;;;;;8.68;5.55;;;;;;;7.48;91.75;98309.50;5588306;31;33695;-57
2023/01/17 07:41:21;;;;;;;7.90;5.05;;;;;;;7.75;94.61;98318.34;5588718;31;34365;-57
2023/01/17 07:44:23;;;;;;;8.65;6.15;;;;;;;7.68;89.26;98331.31;5588932;31;33607;-58
2023/01/17 07:47:25;;;;;;;8.88;5.75;;;;;;;7.49;91.53;98337.72;5588061;31;33738;-57
2023/01/17 07:50:27;;;;;;;8.63;5.30;;;;;;;7.41;90.54;98348.34;5580606;31;33666;-57
2023/01/17 07:53:32;;;;;;;6.60;4.03;;;;;;;7.39;91.12;98351.34;5568129;32;33250;-58
2023/01/17 07:56:34;;;;;;;4.35;2.90;;;;;;;7.34;88.85;98358.69;5569655;31;35132;-58
2023/01/17 07:59:36;;;;;;;3.72;2.70;;;;;;;7.32;89.57;98369.66;5588014;31;34912;-58
2023/01/17 08:02:39;;;;;;;4.55;2.58;;;;;;;7.21;86.74;98381.66;5587748;31;34269;-59
2023/01/17 08:05:51;;;;;;;2.90;1.92;;;;;;;7.14;87.19;98376.00;5587987;31;34292;-57
2023/01/17 08:08:55;;;;;;;3.37;2.30;;;;;;;7.12;87.57;98375.50;5587850;31;34259;-58
2023/01/17 08:11:58;;;;;;;2.53;1.98;;;;;;;7.11;88.12;98382.72;5588031;31;33976;-58
2023/01/17 08:15:00;;;;;;;2.30;1.48;;;;;;;7.24;88.92;98381.06;5587902;31;33607;-57
2023/01/17 08:18:03;;;;;;;2.05;1.58;;;;;;;7.17;85.62;98386.81;5587708;31;33690;-57
2023/01/17 08:21:12;;;;;;;2.78;1.75;;;;;;;7.23;85.98;98387.47;5587997;31;34028;-58
2023/01/17 08:24:14;;;;;;;3.08;1.80;;;;;;;7.10;84.98;98391.03;5587556;31;33751;-57
2023/01/17 08:27:16;;;;;;;3.90;1.48;;;;;;;7.12;84.14;98400.28;5587210;31;33818;-57
2023/01/17 08:30:19;;;;;;;2.35;1.67;;;;;;;7.17;84.46;98410.81;5587022;31;33675;-58
2023/01/17 08:33:21;;;;;;;1.50;1.17;;;;;;;7.16;87.12;98403.91;5585672;31;33622;-57
2023/01/17 08:36:24;;;;;;;3.53;1.90;;;;;;;7.02;82.76;98409.31;5587555;31;33726;-57
2023/01/17 08:39:27;;;;;;;3.85;1.75;;;;;;;7.35;91.73;98406.38;5587212;31;34382;-58
2023/01/17 08:42:36;;;;;;;2.40;1.62;;;;;;;7.33;95.41;98413.09;5588303;31;33635;-57
2023/01/17 08:45:42;;;;;;;2.22;1.40;;;;;;;7.41;100.00;98420.31;5587658;31;34067;-57
2023/01/17 08:48:45;;;;;;;;;;;;;;;7.37;87.29;98419.38;5587661;31;33603;-58
2023/01/17 08:51:47;;;;;;;2.75;1.27;;;;;;;7.33;84.07;98432.53;5584635;31;34631;-57
2023/01/17 08:54:50;;;;;;;1.87;1.30;;;;;;;7.34;83.21;98438.63;5587566;31;34274;-57
2023/01/17 08:57:52;;;;;;;2.40;1.25;;;;;;;7.47;82.10;98445.75;5587812;31;33636;-57
2023/01/17 09:00:59;;;;;;;1.35;1.12;;;;;;;7.30;83.72;98443.78;5587686;31;33664;-57
2023/01/17 09:04:02;;;;;;;1.40;1.15;;;;;;;7.39;84.01;98433.97;5585381;31;33721;-57
2023/01/17 09:07:06;;;;;;;1.17;1.08;;;;;;;7.36;82.17;98431.13;5585810;31;33608;-57
2023/01/17 09:10:09;;;;;;;1.20;1.08;;;;;;;7.26;82.30;98432.19;5587303;31;34278;-57
2023/01/17 09:13:11;;;;;;;1.67;1.10;;;;;;;7.44;84.35;98419.72;5587471;31;33902;-58
2023/01/17 09:16:13;;;;;;;1.80;1.05;;;;;;;7.56;87.32;98433.25;5586874;31;33672;-58
2023/01/17 09:19:16;;;;;;;2.22;1.65;;;;;;;7.58;89.08;98439.06;5578380;31;33729;-58
2023/01/17 09:22:18;;;;;;;2.33;1.50;;;;;;;7.50;82.54;98440.59;5584350;31;33821;-58
2023/01/17 09:25:21;;;;;;;2.30;1.58;;;;;;;7.48;86.02;98436.66;5582203;31;34321;-56
2023/01/17 09:28:24;;;;;;;3.45;2.20;;;;;;;7.60;92.35;98436.09;5572144;31;33716;-58
2023/01/17 09:31:27;;;;;;;1.90;1.40;;;;;;;7.63;97.22;98438.16;5567361;32;34369;-58
2023/01/17 09:34:29;;;;;;;1.05;0.90;;;;;;;7.66;84.30;98446.31;5572130;31;33757;-58
2023/01/17 09:37:32;;;;;;;1.10;1.00;;;;;;;7.71;77.05;98456.06;5577851;31;33265;-57
2023/01/17 09:40:37;;;;;;;1.05;0.75;;;;;;;7.67;85.58;98465.78;5583631;31;33696;-58
2023/01/17 09:43:51;;;;;;;2.72;1.17;;;;;;;7.68;83.17;98462.81;5587285;31;33253;-57
2023/01/17 09:47:00;;;;;;;1.08;0.93;;;;;;;7.69;81.01;98477.72;5586041;31;33700;-58
2023/01/17 09:50:24;;;;;;;1.20;1.10;;;;;;;7.88;86.76;98490.81;5585762;31;33687;-57
2023/01/17 09:53:30;;;;;;;2.67;1.50;;;;;;;7.86;79.33;98487.66;5587406;31;34397;-57
2023/01/17 09:56:45;;;;;;;1.77;1.25;;;;;;;7.89;81.25;98497.72;5587345;31;33639;-58
2023/01/17 09:59:59;;;;;;;2.10;1.12;;;;;;;7.90;77.31;98498.50;5585355;31;34649;-58
2023/01/17 10:03:20;;;;;;;2.28;1.12;;;;;;;7.76;78.49;98488.72;5588948;31;35109;-57
2023/01/17 10:06:48;;;;;;;2.72;1.30;;;;;;;7.90;85.07;98495.84;5578732;31;32749;-58
2023/01/17 10:10:17;;;;;;;1.52;1.10;;;;;;;8.03;82.63;98505.63;5586199;31;33626;-57
2023/01/17 10:13:38;;;;;;;1.65;1.15;;;;;;;8.14;83.01;98511.44;5586606;31;34334;-57
2023/01/17 10:16:53;;;;;;;1.40;1.30;;;;;;;8.28;81.18;98506.00;5588398;31;33539;-58
2023/01/17 10:20:25;;;;;;;2.83;1.70;;;;;;;8.30;76.60;98506.47;5580955;31;33850;-57
2023/01/17 10:23:36;;;;;;;3.78;1.83;;;;;;;8.53;83.45;98515.19;5586241;31;33608;-57
2023/01/17 10:26:38;;;;;;;2.30;1.70;;;;;;;8.41;79.83;98505.91;5587013;31;33709;-57
2023/01/17 10:29:44;;;;;;;2.87;1.17;;;;;;;8.46;89.26;98505.75;5588340;31;33917;-57
2023/01/17 10:32:48;;;;;;;1.55;1.17;;;;;;;8.64;94.86;98514.59;5586959;31;34437;-58
2023/01/17 10:35:55;;;;;;;1.10;1.00;;;;;;;8.49;76.81;98511.59;5588495;31;35421;-57
2023/01/17 10:39:03;;;;;;;1.50;1.02;;;;;;;8.58;77.33;98509.72;5569395;32;33646;-57
2023/01/17 10:42:16;;;;;;;2.45;1.10;;;;;;;8.49;75.11;98491.00;5575195;31;33868;-57
2023/01/17 10:45:27;;;;;;;1.25;1.08;;;;;;;8.38;80.67;98487.84;5574558;31;33582;-57
2023/01/17 10:48:38;;;;;;;4.50;2.33;;;;;;;8.51;84.97;98475.47;5568524;31;33666;-57
2023/01/17 10:51:48;;;;;;;1.20;1.08;;;;;;;8.53;77.24;98473.25;5576199;31;31349;-57
2023/01/17 10:55:09;;;;;;;2.95;1.10;;;;;;;8.54;75.34;98466.03;5589068;31;34425;-58
2023/01/17 10:58:12;;;;;;;2.33;1.70;;;;;;;8.60;74.62;98470.13;5588216;31;34482;-59
2023/01/17 11:01:19;;;;;;;2.85;1.08;;;;;;;8.73;89.26;98465.72;5589034;31;34354;-57
2023/01/17 11:04:40;;;;;;;2.15;1.00;;;;;;;8.73;75.67;98458.50;5569256;31;33681;-57
2023/01/17 11:08:05;;;;;;;1.80;1.10;;;;;;;8.75;73.82;98455.53;5569570;32;33661;-59
2023/01/17 11:11:08;;;;;;;1.40;1.00;;;;;;;8.78;86.68;98442.31;5581144;31;33643;-58
2023/01/17 11:14:20;;;;;;;2.78;1.35;;;;;;;8.67;74.74;98433.03;5588268;31;34415;-58
2023/01/17 11:17:24;;;;;;;2.70;1.23;;;;;;;8.73;71.31;98437.13;5588559;31;33613;-58
2023/01/17 11:20:35;;;;;;;4.32;1.00;;;;;;;8.73;78.84;98433.66;5587631;31;34353;-58
2023/01/17 11:23:41;;;;;;;1.35;1.00;;;;;;;8.66;73.01;98429.56;5588493;31;34277;-58
2023/01/17 11:26:48;;;;;;;1.37;1.02;;;;;;;8.80;79.58;98428.63;5587917;31;33931;-58
2023/01/17 11:30:17;;;;;;;1.40;1.10;;;;;;;8.83;71.86;98418.09;5587452;31;34468;-57
2023/01/17 11:33:45;;;;;;;1.20;1.10;;;;;;;8.86;77.28;98414.00;5581535;31;33808;-57
2023/01/17 11:36:49;;;;;;;1.25;1.08;;;;;;;8.84;81.76;98402.84;5576710;31;35276;-57
2023/01/17 11:40:05;;;;;;;1.30;0.95;;;;;;;9.08;77.30;98407.69;5587358;31;33693;-57
2023/01/17 11:43:11;;;;;;;1.70;1.23;;;;;;;9.01;78.67;98402.84;5587504;31;33689;-57
2023/01/17 11:46:16;;;;;;;2.65;1.15;;;;;;;9.06;70.18;98394.63;5588080;31;33702;-57
2023/01/17 11:49:24;;;;;;;1.90;1.23;;;;;;;9.12;67.76;98393.37;5585524;31;35245;-57
2023/01/17 11:52:36;;;;;;;1.95;1.10;;;;;;;9.06;67.11;98399.97;5586988;31;33812;-58
2023/01/17 11:55:39;;;;;;;1.77;1.40;;;;;;;9.10;69.25;98392.09;5586803;31;33073;-58
2023/01/17 11:58:42;;;;;;;2.22;1.25;;;;;;;9.11;74.14;98409.72;5576373;31;34229;-59
2023/01/17 12:01:57;;;;;;;2.70;1.35;;;;;;;9.07;67.11;98411.44;5587093;31;33853;-58
2023/01/17 12:05:22;;;;;;;1.40;1.10;;;;;;;9.11;68.59;98431.13;5581417;31;33197;-57
2023/01/17 12:08:36;;;;;;;2.40;1.42;;;;;;;9.14;64.71;98427.81;5587182;31;34380;-57
2023/01/17 12:15:32;;;;;;;4.62;1.48;;;;;;;9.22;76.56;98435.00;5588129;31;33712;-57
2023/01/17 12:18:50;;;;;;;3.90;1.37;;;;;;;9.33;74.87;98436.22;5586944;31;33636;-57
2023/01/17 12:22:40;;;;;;;3.10;1.25;;;;;;;9.35;75.68;98431.37;5581563;31;33756;-57
2023/01/17 12:25:59;;;;;;;4.10;1.77;;;;;;;9.45;73.23;98424.88;5531344;31;33501;-57
2023/01/17 12:29:32;;;;;;;5.03;2.03;;;;;;;9.39;67.80;98423.47;5579457;31;34423;-57
2023/01/17 12:33:10;;;;;;;1.85;1.42;;;;;;;9.60;80.42;98419.00;5574460;31;34437;-57
2023/01/17 12:36:42;;;;;;;8.13;4.82;;;;;;;9.48;71.58;98421.56;5506935;31;34486;-58
2023/01/17 12:39:53;;;;;;;15.63;11.18;;;;;;;9.76;73.20;98426.47;5573307;31;33997;-58
2023/01/17 12:43:05;;;;;;;14.90;12.32;;;;;;;9.67;83.64;98425.72;5580491;31;33421;-57
2023/01/17 12:46:22;;;;;;;13.93;7.80;;;;;;;9.79;83.72;98426.62;5575391;31;33739;-57
2023/01/17 12:49:48;;;;;;;6.93;5.43;;;;;;;9.72;68.72;98429.03;5572894;31;34381;-59
2023/01/17 12:52:56;;;;;;;4.75;2.42;;;;;;;9.65;68.30;98426.84;5579651;31;33167;-57
2023/01/17 12:56:09;;;;;;;3.33;2.03;;;;;;;9.69;66.01;98421.63;5586564;31;33823;-57
2023/01/17 12:59:23;;;;;;;8.60;3.72;;;;;;;9.63;69.47;98420.25;5586477;31;33087;-57
2023/01/17 13:02:51;;;;;;;4.22;2.10;;;;;;;9.65;76.68;98415.37;5584570;31;33645;-58
2023/01/17 13:05:56;;;;;;;5.55;4.47;;;;;;;9.60;69.01;98416.34;5571045;31;34358;-58
2023/01/17 13:09:02;;;;;;;30.20;27.20;;;;;;;9.63;73.87;98409.53;5567633;32;34699;-57
2023/01/17 13:12:11;;;;;;;14.50;12.93;;;;;;;9.89;81.29;98404.84;5567688;32;33778;-57
2023/01/17 13:15:27;;;;;;;11.27;8.25;;;;;;;9.74;70.39;98413.44;5566734;32;33755;-57
2023/01/17 13:18:32;;;;;;;5.87;4.28;;;;;;;9.57;70.10;98416.16;5567106;32;34402;-57
2023/01/17 13:21:34;;;;;;;4.97;3.37;;;;;;;9.52;71.70;98424.38;5577075;31;33919;-58
2023/01/17 13:24:54;;;;;;;4.95;2.83;;;;;;;9.50;76.00;98421.25;5584925;31;33832;-58
2023/01/17 13:28:21;;;;;;;5.95;4.32;;;;;;;9.41;71.53;98426.62;5584661;31;33733;-58
2023/01/17 13:31:43;;;;;;;5.93;4.25;;;;;;;9.50;76.26;98429.25;5570294;32;34294;-57
2023/01/17 13:35:04;;;;;;;5.00;2.95;;;;;;;9.53;75.04;98431.31;5584621;31;33603;-58
2023/01/17 13:38:16;;;;;;;4.80;3.37;;;;;;;9.49;72.12;98414.31;5588484;31;33903;-59
2023/01/17 13:41:33;;;;;;;4.68;3.08;;;;;;;9.52;73.53;98414.47;5589524;31;33659;-57
2023/01/17 13:44:36;;;;;;;6.18;3.00;;;;;;;9.47;71.89;98403.97;5586558;31;33749;-57
2023/01/17 13:47:40;;;;;;;6.18;2.97;;;;;;;9.41;75.99;98399.91;5588987;31;33665;-58
2023/01/17 13:51:08;;;;;;;7.28;3.72;;;;;;;9.41;75.49;98399.91;5589471;31;34292;-58
2023/01/17 13:54:30;;;;;;;6.28;2.75;;;;;;;9.48;81.75;98394.81;5589944;31;34428;-58
2023/01/17 13:57:42;;;;;;;5.03;2.70;;;;;;;9.45;72.50;98390.13;5589867;31;34429;-58
2023/01/17 14:00:48;;;;;;;6.10;2.80;;;;;;;9.47;77.19;98382.56;5589680;31;34374;-57
2023/01/17 14:03:51;;;;;;;5.75;3.00;;;;;;;9.37;71.22;98373.00;5589735;31;34419;-57
2023/01/17 14:06:58;;;;;;;5.95;3.03;;;;;;;9.34;84.08;98365.62;5580229;31;33637;-57
2023/01/17 14:10:14;;;;;;;5.03;2.75;;;;;;;9.38;76.99;98361.19;5569921;32;34327;-57
2023/01/17 14:13:35;;;;;;;4.18;2.87;;;;;;;9.32;81.52;98343.75;5569882;32;33704;-57
2023/01/17 14:16:38;;;;;;;4.87;3.03;;;;;;;9.53;76.87;98341.13;5570147;32;33707;-57
2023/01/17 14:19:45;;;;;;;6.07;3.22;;;;;;;9.46;82.20;98329.38;5569872;32;34140;-57
2023/01/17 14:23:00;;;;;;;4.43;2.90;;;;;;;9.52;78.74;98318.19;5569668;32;34375;-57
2023/01/17 14:26:26;;;;;;;7.70;3.58;;;;;;;9.61;79.07;98323.50;5587644;31;34350;-58
2023/01/17 14:29:46;;;;;;;9.38;2.65;;;;;;;9.40;75.81;98320.75;5577537;31;34232;-58
2023/01/17 14:32:58;;;;;;;5.28;2.60;;;;;;;9.36;73.41;98312.59;5589356;31;33751;-58
2023/01/17 14:36:04;;;;;;;6.82;2.85;;;;;;;9.43;77.68;98305.97;5588781;31;34400;-58
2023/01/17 14:39:21;;;;;;;10.55;3.17;;;;;;;9.54;75.16;98296.47;5589179;31;33627;-57
2023/01/17 14:42:26;;;;;;;10.43;3.17;;;;;;;9.63;75.11;98278.47;5589192;31;33664;-57
2023/01/17 14:45:31;;;;;;;5.07;3.30;;;;;;;9.62;82.52;98284.94;5589202;31;33802;-57
2023/01/17 14:48:38;;;;;;;7.07;4.00;;;;;;;9.43;75.94;98290.69;5589038;31;33899;-57
2023/01/17 14:51:40;;;;;;;8.18;3.40;;;;;;;9.60;75.78;98287.13;5589118;31;33841;-57
2023/01/17 14:54:51;;;;;;;5.20;3.12;;;;;;;9.48;74.28;98277.16;5588692;31;33669;-58
2023/01/17 14:57:57;;;;;;;7.70;3.70;;;;;;;9.71;79.78;98266.16;5589079;31;33736;-57
2023/01/17 15:01:10;;;;;;;8.38;3.90;;;;;;;9.60;75.41;98263.84;5588525;31;34342;-57
2023/01/17 15:04:30;;;;;;;9.70;4.03;;;;;;;9.59;69.82;98267.62;5588912;31;34451;-58
2023/01/17 15:07:35;;;;;;;8.98;3.90;;;;;;;9.53;73.83;98262.78;5588914;31;33830;-58
2023/01/17 15:10:58;;;;;;;5.70;3.87;;;;;;;9.47;75.13;98277.44;5588878;31;34244;-57
2023/01/17 15:14:04;;;;;;;6.55;4.07;;;;;;;9.41;71.83;98274.19;5589315;31;33599;-58
2023/01/17 15:17:23;;;;;;;7.12;4.12;;;;;;;9.33;76.42;98283.81;5588348;31;33817;-58
2023/01/17 15:20:26;;;;;;;6.57;3.78;;;;;;;9.24;73.83;98284.97;5589207;31;33745;-57
2023/01/17 15:23:33;;;;;;;22.25;4.18;;;;;;;9.19;79.47;98277.91;5588830;31;33685;-57
2023/01/17 15:26:39;;;;;;;7.05;3.95;;;;;;;9.18;85.06;98274.47;5588811;31;33833;-57
2023/01/17 15:29:44;;;;;;;6.68;3.97;;;;;;;9.27;77.96;98262.94;5589167;31;33780;-57
2023/01/17 15:32:48;;;;;;;7.18;3.85;;;;;;;9.17;73.86;98254.19;5588882;31;33761;-57
2023/01/17 15:36:01;;;;;;;7.43;3.85;;;;;;;9.12;73.45;98261.59;5589214;31;34311;-57
2023/01/17 15:39:21;;;;;;;7.45;3.78;;;;;;;9.12;70.90;98256.25;5588969;31;33640;-57
2023/01/17 15:42:27;;;;;;;6.45;4.10;;;;;;;9.36;76.43;98251.09;5588913;31;34329;-57
2023/01/17 15:45:31;;;;;;;16.08;5.03;;;;;;;9.45;81.69;98252.94;5588955;31;34494;-57
2023/01/17 15:48:43;;;;;;;9.73;4.62;;;;;;;9.52;72.99;98239.84;5587806;31;33741;-57
2023/01/17 15:52:07;;;;;;;9.95;4.70;;;;;;;9.64;74.15;98242.59;5588785;31;35221;-57
2023/01/17 15:55:13;;;;;;;6.82;4.45;;;;;;;9.62;71.62;98221.50;5588523;31;34289;-57
2023/01/17 15:58:28;;;;;;;8.88;4.80;;;;;;;9.84;73.80;98216.94;5588484;31;33731;-57
2023/01/17 16:01:31;;;;;;;5.80;3.90;;;;;;;9.63;71.55;98215.06;5588572;31;33813;-57
2023/01/17 16:04:41;;;;;;;10.00;4.25;;;;;;;9.88;83.52;98213.28;5588156;31;34365;-58
2023/01/17 16:07:43;;;;;;;10.10;4.15;;;;;;;9.78;72.42;98208.31;5586149;31;33680;-57
2023/01/17 16:10:45;;;;;;;9.07;4.20;;;;;;;9.86;82.57;98202.09;5588076;31;33592;-58
2023/01/17 16:13:48;;;;;;;10.45;4.53;;;;;;;9.67;68.42;98201.00;5588832;31;33780;-57
2023/01/17 16:16:52;;;;;;;6.55;4.20;;;;;;;9.73;77.89;98208.50;5588410;31;34125;-57
2023/01/17 16:19:54;;;;;;;6.60;4.37;;;;;;;9.69;79.28;98204.16;5588801;31;34353;-57
2023/01/17 16:22:57;;;;;;;6.07;4.22;;;;;;;9.60;85.50;98210.34;5588389;31;33302;-58
2023/01/17 16:26:01;;;;;;;8.88;4.47;;;;;;;9.76;73.95;98204.41;5588596;31;33630;-57
2023/01/17 16:29:03;;;;;;;6.87;4.28;;;;;;;9.83;74.11;98193.94;5588376;31;33713;-58
2023/01/17 16:32:07;;;;;;;7.50;4.40;;;;;;;9.92;79.01;98193.88;5588320;31;33736;-58
2023/01/17 16:35:19;;;;;;;7.00;4.43;;;;;;;9.87;71.80;98179.59;5588379;31;33824;-57
2023/01/17 16:38:22;;;;;;;7.90;4.97;;;;;;;9.67;72.91;98183.09;5588421;31;33718;-58
2023/01/17 16:41:24;;;;;;;6.12;4.03;;;;;;;9.43;73.84;98185.63;5588418;31;33623;-57
2023/01/17 16:44:26;;;;;;;7.57;3.95;;;;;;;9.41;82.34;98185.94;5588281;31;34258;-58
2023/01/17 16:47:28;;;;;;;7.62;4.37;;;;;;;9.53;78.78;98171.84;5588442;31;33800;-57
2023/01/17 16:50:31;;;;;;;6.32;4.00;;;;;;;9.43;74.93;98165.00;5588199;31;33784;-57
